createdAt,value
2023-09-13T00:01:05.077Z,99636.81
2023-09-13T00:03:32.996Z,99636.41
2023-09-13T00:06:00.511Z,99639.53
2023-09-13T00:08:27.934Z,99634.38
2023-09-13T00:11:05.171Z,99636.03
2023-09-13T00:13:33.973Z,99631.38
2023-09-13T00:16:02.050Z,99640.84
2023-09-13T00:18:29.618Z,99633.69
2023-09-13T00:20:57.063Z,99629.41
2023-09-13T00:23:24.781Z,99631.88
2023-09-13T00:25:52.227Z,99631.34
2023-09-13T00:28:19.694Z,99626.19
2023-09-13T00:30:47.511Z,99628.00
2023-09-13T00:33:15.249Z,99624.66
2023-09-13T00:35:42.669Z,99616.78
2023-09-13T00:38:10.514Z,99616.09
2023-09-13T00:40:37.951Z,99622.25
2023-09-13T00:43:05.470Z,99618.97
2023-09-13T00:45:34.723Z,99624.53
2023-09-13T00:48:02.773Z,99622.84
2023-09-13T00:50:40.162Z,99625.41
2023-09-13T00:53:18.845Z,99623.12
2023-09-13T00:55:48.773Z,99626.84
2023-09-13T00:58:16.844Z,99623.12
2023-09-13T01:00:44.955Z,99628.75
2023-09-13T01:03:12.749Z,99635.87
2023-09-13T01:05:40.258Z,99620.81
2023-09-13T01:08:08.574Z,99620.06
2023-09-13T01:10:36.088Z,99634.28
2023-09-13T01:13:03.884Z,99631.84
2023-09-13T01:15:37.068Z,99637.00
2023-09-13T01:18:17.460Z,99642.50
2023-09-13T01:21:07.166Z,99645.50
2023-09-13T01:23:53.409Z,99640.56
2023-09-13T01:26:49.585Z,99639.09
2023-09-13T01:29:17.477Z,99634.06
2023-09-13T01:31:45.258Z,99643.00
2023-09-13T01:34:12.831Z,99640.56
2023-09-13T01:36:40.434Z,99641.50
2023-09-13T01:39:08.261Z,99641.88
2023-09-13T01:41:43.136Z,99640.00
2023-09-13T01:44:11.288Z,99649.16
2023-09-13T01:46:43.986Z,99639.47
2023-09-13T01:49:14.105Z,99645.59
2023-09-13T01:51:41.840Z,99635.91
2023-09-13T01:54:09.248Z,99645.63
2023-09-13T01:56:36.973Z,99642.06
2023-09-13T01:59:04.553Z,99640.72
2023-09-13T02:01:32.068Z,99650.25
2023-09-13T02:03:59.934Z,99648.56
2023-09-13T02:06:27.814Z,99651.37
2023-09-13T02:08:55.313Z,99641.66
2023-09-13T02:11:23.018Z,99645.38
2023-09-13T02:13:51.899Z,99643.50
2023-09-13T02:16:22.959Z,99644.59
2023-09-13T02:18:52.078Z,99641.94
2023-09-13T02:21:19.722Z,99644.59
2023-09-13T02:23:47.321Z,99633.72
2023-09-13T02:26:22.232Z,99642.84
2023-09-13T02:28:51.970Z,99639.38
2023-09-13T02:31:27.727Z,99635.13
2023-09-13T02:33:55.862Z,99628.06
2023-09-13T02:36:23.899Z,99641.41
2023-09-13T02:38:52.729Z,99640.63
2023-09-13T02:41:20.222Z,99645.78
2023-09-13T02:43:48.142Z,99641.69
2023-09-13T02:46:16.069Z,99643.56
2023-09-13T02:48:43.735Z,99649.63
2023-09-13T02:51:15.474Z,99647.88
2023-09-13T02:53:43.673Z,99640.13
2023-09-13T02:56:12.765Z,99645.47
2023-09-13T02:58:41.127Z,99651.72
2023-09-13T03:01:11.945Z,99645.59
2023-09-13T03:03:40.672Z,99647.44
2023-09-13T03:06:14.424Z,99643.87
2023-09-13T03:08:43.078Z,99642.87
2023-09-13T03:11:15.563Z,99644.34
2023-09-13T03:13:44.480Z,99635.66
2023-09-13T03:16:16.607Z,99636.63
2023-09-13T03:18:45.665Z,99631.44
2023-09-13T03:21:13.932Z,99634.19
2023-09-13T03:23:43.823Z,99637.47
2023-09-13T03:26:19.290Z,99633.22
2023-09-13T03:28:48.862Z,99637.03
2023-09-13T03:31:18.804Z,99635.41
2023-09-13T03:33:48.342Z,99633.72
2023-09-13T03:36:17.117Z,99636.41
2023-09-13T03:38:47.414Z,99627.91
2023-09-13T03:41:17.252Z,99628.09
2023-09-13T03:43:45.234Z,99633.31
2023-09-13T03:46:13.213Z,99638.94
2023-09-13T03:48:41.287Z,99626.56
2023-09-13T03:51:09.447Z,99631.81
2023-09-13T03:53:37.372Z,99630.94
2023-09-13T03:56:05.504Z,99632.06
2023-09-13T03:58:36.454Z,99629.69
2023-09-13T04:01:04.428Z,99633.19
2023-09-13T04:03:33.650Z,99636.84
2023-09-13T04:06:01.625Z,99632.53
2023-09-13T04:08:29.959Z,99634.38
2023-09-13T04:10:57.975Z,99638.62
2023-09-13T04:13:25.638Z,99638.91
2023-09-13T04:15:53.288Z,99641.56
2023-09-13T04:18:21.190Z,99649.56
2023-09-13T04:20:48.672Z,99644.53
2023-09-13T04:23:16.517Z,99641.78
2023-09-13T04:25:44.379Z,99643.41
2023-09-13T04:28:12.044Z,99646.19
2023-09-13T04:30:39.746Z,99656.88
2023-09-13T04:33:08.800Z,99656.00
2023-09-13T04:35:36.485Z,99656.88
2023-09-13T04:38:04.165Z,99650.72
2023-09-13T04:40:32.285Z,99659.28
2023-09-13T04:43:09.152Z,99662.16
2023-09-13T04:45:37.023Z,99668.44
2023-09-13T04:48:04.956Z,99664.88
2023-09-13T04:50:32.451Z,99658.63
2023-09-13T04:53:00.141Z,99664.59
2023-09-13T04:55:28.622Z,99663.75
2023-09-13T04:57:56.124Z,99666.34
2023-09-13T05:00:28.046Z,99667.69
2023-09-13T05:02:56.238Z,99672.00
2023-09-13T05:05:24.255Z,99666.37
2023-09-13T05:07:52.027Z,99674.97
2023-09-13T05:10:19.511Z,99677.50
2023-09-13T05:12:50.597Z,99675.78
2023-09-13T05:15:18.304Z,99688.78
2023-09-13T05:17:45.815Z,99678.84
2023-09-13T05:20:13.835Z,99687.16
2023-09-13T05:22:41.315Z,99686.84
2023-09-13T05:25:09.206Z,99683.03
2023-09-13T05:27:36.942Z,99691.31
2023-09-13T05:30:04.706Z,99692.53
2023-09-13T05:32:32.299Z,99689.25
2023-09-13T05:35:00.193Z,99687.19
2023-09-13T05:37:27.923Z,99684.62
2023-09-13T05:39:55.424Z,99694.50
2023-09-13T05:42:23.132Z,99688.56
2023-09-13T05:44:50.579Z,99694.72
2023-09-13T05:47:18.047Z,99687.25
2023-09-13T05:49:45.749Z,99685.41
2023-09-13T05:52:13.237Z,99687.03
2023-09-13T05:54:40.669Z,99676.16
2023-09-13T05:57:08.361Z,99682.63
2023-09-13T05:59:40.868Z,99678.12
2023-09-13T06:02:09.756Z,99675.19
2023-09-13T06:04:38.981Z,99688.44
2023-09-13T06:07:06.538Z,99690.41
2023-09-13T06:09:34.022Z,99689.56
2023-09-13T06:12:02.854Z,99699.81
2023-09-13T06:14:31.734Z,99697.34
2023-09-13T06:16:59.785Z,99697.22
2023-09-13T06:19:29.210Z,99693.63
2023-09-13T06:21:56.742Z,99687.41
2023-09-13T06:24:25.543Z,99689.22
2023-09-13T06:26:54.241Z,99687.63
2023-09-13T06:29:21.802Z,99685.47
2023-09-13T06:32:02.788Z,99675.97
2023-09-13T06:34:34.645Z,99676.13
2023-09-13T06:37:04.760Z,99671.03
2023-09-13T06:39:33.569Z,99671.84
2023-09-13T06:42:22.014Z,99676.78
2023-09-13T06:45:00.616Z,99676.41
2023-09-13T06:47:35.224Z,99673.44
2023-09-13T06:50:05.844Z,99671.38
2023-09-13T06:52:34.219Z,99681.25
2023-09-13T06:55:06.545Z,99673.59
2023-09-13T06:57:36.419Z,99674.69
2023-09-13T07:00:10.099Z,99670.81
2023-09-13T07:02:41.678Z,99671.56
2023-09-13T07:07:40.739Z,99673.59
2023-09-13T07:10:09.077Z,99673.16
2023-09-13T07:12:36.875Z,99677.53
2023-09-13T07:15:08.292Z,99680.13
2023-09-13T07:17:36.119Z,99677.88
2023-09-13T07:20:06.430Z,99681.13
2023-09-13T07:22:34.028Z,99679.94
2023-09-13T07:25:01.494Z,99681.16
2023-09-13T07:27:29.231Z,99683.50
2023-09-13T07:29:56.736Z,99678.59
2023-09-13T07:32:26.081Z,99682.03
2023-09-13T07:34:54.943Z,99677.75
2023-09-13T07:37:22.472Z,99680.66
2023-09-13T07:39:49.969Z,99684.69
2023-09-13T07:42:17.705Z,99681.19
2023-09-13T07:44:45.399Z,99676.72
2023-09-13T07:47:12.958Z,99679.59
2023-09-13T07:49:41.057Z,99685.47
2023-09-13T07:52:08.497Z,99680.97
2023-09-13T07:54:36.151Z,99687.75
2023-09-13T07:57:04.597Z,99688.87
2023-09-13T07:59:32.677Z,99685.62
2023-09-13T08:02:00.154Z,99687.87
2023-09-13T08:04:27.965Z,99681.66
2023-09-13T08:06:55.670Z,99696.41
2023-09-13T08:09:23.091Z,99686.72
2023-09-13T08:11:52.057Z,99690.38
2023-09-13T08:14:20.295Z,99687.94
2023-09-13T08:16:47.911Z,99685.72
2023-09-13T08:19:15.690Z,99689.37
2023-09-13T08:21:43.116Z,99689.88
2023-09-13T08:24:10.834Z,99692.09
2023-09-13T08:26:38.667Z,99692.94
2023-09-13T08:29:06.327Z,99686.59
2023-09-13T08:31:34.091Z,99690.56
2023-09-13T08:34:01.816Z,99687.13
2023-09-13T08:36:29.454Z,99681.47
2023-09-13T08:38:56.966Z,99688.50
2023-09-13T08:41:24.867Z,99690.72
2023-09-13T08:43:53.641Z,99696.56
2023-09-13T08:46:22.569Z,99697.22
2023-09-13T08:48:51.080Z,99705.59
2023-09-13T08:51:19.551Z,99707.25
2023-09-13T08:53:47.810Z,99706.84
2023-09-13T08:56:15.868Z,99698.56
2023-09-13T08:58:43.673Z,99706.22
2023-09-13T09:01:13.484Z,99708.47
2023-09-13T09:03:42.379Z,99700.59
2023-09-13T09:06:10.573Z,99702.03
2023-09-13T09:08:40.966Z,99699.25
2023-09-13T09:11:09.591Z,99705.59
2023-09-13T09:13:39.286Z,99699.47
2023-09-13T09:16:07.547Z,99707.00
2023-09-13T09:18:38.792Z,99707.00
2023-09-13T09:21:06.889Z,99699.09
2023-09-13T09:23:36.390Z,99704.75
2023-09-13T09:26:04.925Z,99704.75
2023-09-13T09:28:36.077Z,99705.06
2023-09-13T09:31:04.658Z,99709.09
2023-09-13T09:33:33.284Z,99705.97
2023-09-13T09:36:01.604Z,99708.50
2023-09-13T09:38:30.199Z,99708.41
2023-09-13T09:41:01.832Z,99702.91
2023-09-13T09:43:30.536Z,99695.56
2023-09-13T09:45:58.286Z,99699.44
2023-09-13T09:48:27.580Z,99691.34
2023-09-13T09:50:55.913Z,99693.06
2023-09-13T09:53:24.159Z,99696.41
2023-09-13T09:55:52.325Z,99693.59
2023-09-13T09:58:20.198Z,99687.63
2023-09-13T10:00:52.458Z,99685.97
2023-09-13T10:03:21.492Z,99683.91
2023-09-13T10:05:56.075Z,99691.56
2023-09-13T10:08:38.294Z,99684.88
2023-09-13T10:11:09.786Z,99681.75
2023-09-13T10:13:38.628Z,99678.09
2023-09-13T10:16:10.732Z,99677.25
2023-09-13T10:18:46.772Z,99680.66
2023-09-13T10:21:16.000Z,99676.25
2023-09-13T10:23:46.326Z,99670.88
2023-09-13T10:26:17.299Z,99666.63
2023-09-13T10:28:50.407Z,99660.53
2023-09-13T10:31:19.738Z,99665.09
2023-09-13T10:33:54.524Z,99674.00
2023-09-13T10:36:35.582Z,99671.47
2023-09-13T10:39:38.381Z,99673.03
2023-09-13T10:42:08.119Z,99676.44
2023-09-13T10:44:37.127Z,99665.22
2023-09-13T10:47:08.696Z,99664.81
2023-09-13T10:49:42.575Z,99659.41
2023-09-13T10:52:12.122Z,99654.03
2023-09-13T10:54:40.786Z,99655.72
2023-09-13T10:57:08.234Z,99645.38
2023-09-13T10:59:37.474Z,99650.44
2023-09-13T11:02:06.697Z,99649.44
2023-09-13T11:04:34.381Z,99660.50
2023-09-13T11:07:05.584Z,99638.66
2023-09-13T11:09:34.054Z,99652.00
2023-09-13T11:12:03.842Z,99647.59
2023-09-13T11:14:32.872Z,99645.47
2023-09-13T11:17:12.480Z,99636.66
2023-09-13T11:19:40.070Z,99636.38
2023-09-13T11:22:07.916Z,99634.66
2023-09-13T11:27:13.036Z,99638.97
2023-09-13T11:29:42.762Z,99630.47
2023-09-13T11:32:17.756Z,99625.34
2023-09-13T11:34:46.531Z,99627.91
2023-09-13T11:37:15.064Z,99626.16
2023-09-13T11:39:43.025Z,99627.56
2023-09-13T11:42:24.351Z,99619.81
2023-09-13T11:45:03.396Z,99627.16
2023-09-13T11:47:35.488Z,99621.91
2023-09-13T11:50:13.222Z,99623.09
2023-09-13T11:53:23.547Z,99627.84
2023-09-13T11:58:36.501Z,99621.47
2023-09-13T12:01:12.737Z,99614.13
2023-09-13T12:06:30.575Z,99620.34
2023-09-13T12:09:00.450Z,99618.69
2023-09-13T12:11:31.704Z,99617.59
2023-09-13T12:16:31.842Z,99617.94
2023-09-13T12:19:00.721Z,99610.88
2023-09-13T12:21:28.270Z,99609.19
2023-09-13T12:23:55.799Z,99600.38
2023-09-13T12:26:25.323Z,99597.87
2023-09-13T12:28:53.839Z,99600.78
2023-09-13T12:31:21.992Z,99595.91
2023-09-13T12:33:52.890Z,99599.91
2023-09-13T12:36:20.939Z,99596.31
2023-09-13T12:38:49.905Z,99586.12
2023-09-13T12:41:20.202Z,99585.69
2023-09-13T12:43:51.717Z,99585.31
2023-09-13T12:46:21.158Z,99582.41
2023-09-13T12:48:50.752Z,99579.44
2023-09-13T12:51:21.922Z,99576.50
2023-09-13T12:53:53.486Z,99579.50
2023-09-13T12:56:21.520Z,99570.34
2023-09-13T12:58:56.862Z,99572.13
2023-09-13T13:01:27.760Z,99569.53
2023-09-13T13:04:07.504Z,99570.09
2023-09-13T13:06:54.673Z,99568.94
2023-09-13T13:09:23.237Z,99566.50
2023-09-13T13:11:51.238Z,99566.34
2023-09-13T13:14:21.139Z,99563.25
2023-09-13T13:16:59.692Z,99558.72
2023-09-13T13:19:51.415Z,99560.31
2023-09-13T13:22:19.908Z,99553.34
2023-09-13T13:24:47.989Z,99548.09
2023-09-13T13:27:15.757Z,99552.00
2023-09-13T13:29:43.234Z,99539.00
2023-09-13T13:32:11.140Z,99535.00
2023-09-13T13:34:38.568Z,99546.91
2023-09-13T13:37:08.734Z,99548.88
2023-09-13T13:39:36.632Z,99548.25
2023-09-13T13:42:04.671Z,99551.63
2023-09-13T13:44:33.558Z,99534.88
2023-09-13T13:47:01.395Z,99546.06
2023-09-13T13:49:28.805Z,99538.84
2023-09-13T13:51:56.478Z,99530.19
2023-09-13T13:54:24.648Z,99533.38
2023-09-13T13:56:53.351Z,99535.56
2023-09-13T13:59:20.917Z,99529.53
2023-09-13T14:01:48.793Z,99523.91
2023-09-13T14:04:16.936Z,99518.19
2023-09-13T14:06:47.692Z,99512.00
2023-09-13T14:09:17.866Z,99510.34
2023-09-13T14:11:45.844Z,99520.09
2023-09-13T14:14:14.769Z,99515.09
2023-09-13T14:16:44.495Z,99511.94
2023-09-13T14:19:12.707Z,99513.44
2023-09-13T14:21:40.754Z,99509.62
2023-09-13T14:24:09.140Z,99507.59
2023-09-13T14:26:36.833Z,99512.44
2023-09-13T14:29:04.300Z,99503.78
2023-09-13T14:31:37.727Z,99506.88
2023-09-13T14:34:07.299Z,99502.47
2023-09-13T14:36:34.975Z,99504.00
2023-09-13T14:39:02.788Z,99502.50
2023-09-13T14:41:31.178Z,99505.75
2023-09-13T14:43:58.933Z,99497.06
2023-09-13T14:46:26.475Z,99507.19
2023-09-13T14:48:54.567Z,99505.37
2023-09-13T14:51:22.401Z,99511.50
2023-09-13T14:53:49.872Z,99502.12
2023-09-13T14:56:17.585Z,99494.94
2023-09-13T14:58:45.229Z,99493.50
2023-09-13T15:01:13.207Z,99497.59
2023-09-13T15:03:42.392Z,99499.69
2023-09-13T15:06:09.932Z,99499.34
2023-09-13T15:08:37.408Z,99498.03
2023-09-13T15:11:05.118Z,99499.59
2023-09-13T15:13:32.616Z,99499.44
2023-09-13T15:16:00.375Z,99495.34
2023-09-13T15:18:28.264Z,99491.94
2023-09-13T15:20:55.733Z,99494.34
2023-09-13T15:23:23.610Z,99500.88
2023-09-13T15:25:51.352Z,99494.22
2023-09-13T15:28:19.588Z,99504.13
2023-09-13T15:30:47.704Z,99506.09
2023-09-13T15:33:15.945Z,99496.22
2023-09-13T15:35:43.699Z,99504.44
2023-09-13T15:38:11.253Z,99500.75
2023-09-13T15:40:39.068Z,99500.19
2023-09-13T15:43:06.522Z,99504.75
2023-09-13T15:45:34.321Z,99505.31
2023-09-13T15:48:02.057Z,99509.12
2023-09-13T15:50:29.547Z,99504.19
2023-09-13T15:53:00.569Z,99511.97
2023-09-13T15:55:28.604Z,99506.56
2023-09-13T15:57:56.090Z,99511.25
2023-09-13T16:00:23.588Z,99508.41
2023-09-13T16:02:51.446Z,99509.84
2023-09-13T16:05:18.965Z,99510.81
2023-09-13T16:07:46.390Z,99509.94
2023-09-13T16:10:14.322Z,99503.00
2023-09-13T16:12:41.871Z,99511.44
2023-09-13T16:15:09.787Z,99504.38
2023-09-13T16:17:37.866Z,99508.59
2023-09-13T16:20:06.254Z,99507.97
2023-09-13T16:22:34.022Z,99511.66
2023-09-13T16:25:04.557Z,99519.28
2023-09-13T16:27:32.161Z,99512.47
2023-09-13T16:29:59.992Z,99503.66
2023-09-13T16:32:30.372Z,99506.47
2023-09-13T16:35:00.086Z,99511.53
2023-09-13T16:37:27.805Z,99504.66
2023-09-13T16:39:55.361Z,99501.25
2023-09-13T16:42:22.881Z,99498.97
2023-09-13T16:44:50.578Z,99512.25
2023-09-13T16:47:17.962Z,99511.50
2023-09-13T16:49:45.432Z,99507.78
2023-09-13T16:52:13.200Z,99505.25
2023-09-13T16:54:41.328Z,99504.41
2023-09-13T16:57:08.813Z,99512.03
2023-09-13T16:59:36.526Z,99515.47
2023-09-13T17:02:04.244Z,99509.72
2023-09-13T17:04:31.767Z,99512.13
2023-09-13T17:06:59.848Z,99508.91
2023-09-13T17:09:27.413Z,99513.69
2023-09-13T17:11:54.986Z,99502.62
2023-09-13T17:14:22.722Z,99504.97
2023-09-13T17:16:50.226Z,99513.03
2023-09-13T17:19:17.707Z,99510.34
2023-09-13T17:21:45.468Z,99516.72
2023-09-13T17:24:12.955Z,99508.09
2023-09-13T17:26:40.428Z,99512.00
2023-09-13T17:29:08.152Z,99507.38
2023-09-13T17:31:35.773Z,99511.16
2023-09-13T17:34:03.852Z,99513.09
2023-09-13T17:36:41.378Z,99515.66
2023-09-13T17:39:10.403Z,99521.87
2023-09-13T17:41:39.890Z,99522.84
2023-09-13T17:44:07.377Z,99515.06
2023-09-13T17:46:35.129Z,99523.31
2023-09-13T17:49:03.023Z,99521.00
2023-09-13T17:51:30.702Z,99525.97
2023-09-13T17:53:58.823Z,99529.81
2023-09-13T17:56:26.838Z,99524.59
2023-09-13T17:58:54.313Z,99526.91
2023-09-13T18:01:22.351Z,99525.91
2023-09-13T18:03:50.257Z,99527.22
2023-09-13T18:06:18.686Z,99535.37
2023-09-13T18:08:46.481Z,99530.53
2023-09-13T18:11:14.518Z,99535.59
2023-09-13T18:13:43.910Z,99535.31
2023-09-13T18:16:11.664Z,99546.25
2023-09-13T18:18:39.657Z,99554.34
2023-09-13T18:21:11.755Z,99550.06
2023-09-13T18:23:39.498Z,99557.56
2023-09-13T18:26:06.990Z,99558.34
2023-09-13T18:28:34.526Z,99561.97
2023-09-13T18:31:06.579Z,99561.44
2023-09-13T18:33:35.281Z,99560.00
2023-09-13T18:36:03.752Z,99560.84
2023-09-13T18:38:31.751Z,99564.81
2023-09-13T18:40:59.201Z,99566.84
2023-09-13T18:43:26.944Z,99563.44
2023-09-13T18:45:59.287Z,99567.09
2023-09-13T18:48:28.032Z,99555.56
2023-09-13T18:51:01.213Z,99565.50
2023-09-13T18:53:29.597Z,99572.44
2023-09-13T18:55:58.300Z,99569.38
2023-09-13T18:58:27.837Z,99572.25
2023-09-13T19:01:02.481Z,99566.94
2023-09-13T19:03:34.126Z,99562.69
2023-09-13T19:06:02.646Z,99563.44
2023-09-13T19:08:30.811Z,99569.19
2023-09-13T19:11:02.279Z,99569.97
2023-09-13T19:13:33.242Z,99565.38
2023-09-13T19:16:02.660Z,99565.91
2023-09-13T19:18:40.828Z,99560.34
2023-09-13T19:21:12.996Z,99560.16
2023-09-13T19:23:44.658Z,99563.78
2023-09-13T19:26:12.244Z,99564.84
2023-09-13T19:28:39.678Z,99564.41
2023-09-13T19:31:08.605Z,99558.56
2023-09-13T19:33:36.578Z,99561.00
2023-09-13T19:36:05.913Z,99560.88
2023-09-13T19:38:38.136Z,99557.25
2023-09-13T19:41:06.796Z,99552.00
2023-09-13T19:43:36.247Z,99554.19
2023-09-13T19:46:04.790Z,99559.53
2023-09-13T19:48:34.241Z,99562.41
2023-09-13T19:51:05.318Z,99558.16
2023-09-13T19:53:33.328Z,99556.94
2023-09-13T19:56:01.629Z,99558.66
2023-09-13T19:58:30.393Z,99552.81
2023-09-13T20:01:08.010Z,99553.00
2023-09-13T20:03:36.022Z,99549.59
2023-09-13T20:06:21.888Z,99546.28
2023-09-13T20:08:49.987Z,99538.75
2023-09-13T20:11:17.569Z,99541.84
2023-09-13T20:13:45.173Z,99533.09
2023-09-13T20:16:12.947Z,99539.62
2023-09-13T20:18:40.530Z,99535.87
2023-09-13T20:21:08.115Z,99541.94
2023-09-13T20:23:35.917Z,99540.25
2023-09-13T20:26:04.304Z,99544.53
2023-09-13T20:28:32.875Z,99545.06
2023-09-13T20:31:01.343Z,99545.28
2023-09-13T20:33:29.295Z,99553.50
2023-09-13T20:35:57.096Z,99553.19
2023-09-13T20:38:24.802Z,99552.75
2023-09-13T20:40:52.389Z,99546.16
2023-09-13T20:43:19.918Z,99558.94
2023-09-13T20:45:49.842Z,99553.63
2023-09-13T20:48:17.546Z,99554.34
2023-09-13T20:50:45.124Z,99549.13
2023-09-13T20:53:13.039Z,99539.38
2023-09-13T20:55:40.639Z,99545.28
2023-09-13T20:58:08.033Z,99541.84
2023-09-13T21:00:35.766Z,99535.56
2023-09-13T21:03:03.724Z,99540.56
2023-09-13T21:05:31.361Z,99533.63
2023-09-13T21:08:00.848Z,99532.56
2023-09-13T21:10:28.427Z,99535.44
2023-09-13T21:12:55.906Z,99542.69
2023-09-13T21:15:24.245Z,99547.62
2023-09-13T21:17:51.800Z,99552.75
2023-09-13T21:20:19.325Z,99553.81
2023-09-13T21:22:47.015Z,99559.47
2023-09-13T21:25:16.660Z,99565.75
2023-09-13T21:27:44.158Z,99570.69
2023-09-13T21:30:12.258Z,99574.94
2023-09-13T21:32:39.736Z,99585.41
2023-09-13T21:35:07.613Z,99591.03
2023-09-13T21:37:37.324Z,99586.78
2023-09-13T21:40:06.480Z,99590.94
2023-09-13T21:42:33.988Z,99595.28
2023-09-13T21:45:01.832Z,99606.28
2023-09-13T21:47:29.338Z,99601.16
2023-09-13T21:49:56.811Z,99598.59
2023-09-13T21:52:24.584Z,99598.34
2023-09-13T21:54:52.097Z,99593.16
2023-09-13T21:57:22.331Z,99592.22
2023-09-13T21:59:50.229Z,99597.13
2023-09-13T22:02:17.683Z,99594.53
2023-09-13T22:04:45.557Z,99594.88
2023-09-13T22:07:13.164Z,99606.63
2023-09-13T22:09:40.644Z,99605.72
2023-09-13T22:12:09.815Z,99608.81
2023-09-13T22:14:45.624Z,99608.19
2023-09-13T22:17:14.898Z,99614.28
2023-09-13T22:19:46.022Z,99619.91
2023-09-13T22:22:17.377Z,99617.59
2023-09-13T22:24:47.235Z,99622.59
2023-09-13T22:27:14.976Z,99623.88
2023-09-13T22:29:48.042Z,99624.81
2023-09-13T22:32:16.058Z,99624.28
2023-09-13T22:34:46.169Z,99623.56
2023-09-13T22:37:13.886Z,99620.56
2023-09-13T22:39:41.720Z,99632.72
2023-09-13T22:42:11.007Z,99627.59
2023-09-13T22:44:38.498Z,99620.22
2023-09-13T22:47:07.079Z,99621.72
2023-09-13T22:49:35.451Z,99618.97
2023-09-13T22:52:03.723Z,99623.12
2023-09-13T22:54:31.617Z,99626.63
2023-09-13T22:56:59.518Z,99617.56
2023-09-13T22:59:27.056Z,99621.91
2023-09-13T23:01:54.861Z,99620.66
2023-09-13T23:04:22.501Z,99628.00
2023-09-13T23:06:50.213Z,99630.66
2023-09-13T23:09:21.646Z,99633.00
2023-09-13T23:11:50.130Z,99641.00
2023-09-13T23:14:17.932Z,99632.44
2023-09-13T23:16:46.068Z,99632.81
2023-09-13T23:19:13.891Z,99629.28
2023-09-13T23:21:41.644Z,99622.75
2023-09-13T23:24:13.609Z,99630.34
2023-09-13T23:26:40.952Z,99615.72
2023-09-13T23:29:09.731Z,99616.38
2023-09-13T23:31:38.210Z,99612.53
2023-09-13T23:34:08.528Z,99609.84
2023-09-13T23:36:36.337Z,99617.19
2023-09-13T23:39:07.851Z,99615.25
2023-09-13T23:41:35.223Z,99622.81
2023-09-13T23:44:03.467Z,99623.53
2023-09-13T23:46:30.973Z,99628.81
2023-09-13T23:48:58.770Z,99633.31
2023-09-13T23:51:26.578Z,99633.44
2023-09-13T23:53:54.018Z,99644.16
2023-09-13T23:56:21.836Z,99650.44
2023-09-13T23:58:50.110Z,99654.09
